sensor_id;sensor_type;location;lat;lon;timestamp;temperature;humidity
25170;DHT22;13129;48.012;10.352;2023-05-16T03:32:04;6.80;99.90
25170;DHT22;13129;48.012;10.352;2023-05-16T03:34:30;6.70;99.90
25170;DHT22;13129;48.012;10.352;2023-05-16T03:36:55;6.70;99.90
25170;DHT22;13129;48.012;10.352;2023-05-16T03:39:21;6.70;99.90
25170;DHT22;13129;48.012;10.352;2023-05-16T03:41:47;6.70;99.90
25170;DHT22;13129;48.012;10.352;2023-05-16T03:44:13;6.60;99.90
25170;DHT22;13129;48.012;10.352;2023-05-16T03:46:39;6.70;99.90
25170;DHT22;13129;48.012;10.352;2023-05-16T03:49:04;6.70;99.90
25170;DHT22;13129;48.012;10.352;2023-05-16T03:51:30;6.70;99.90
25170;DHT22;13129;48.012;10.352;2023-05-16T03:53:56;6.70;99.90
25170;DHT22;13129;48.012;10.352;2023-05-16T03:56:22;6.60;99.90
25170;DHT22;13129;48.012;10.352;2023-05-16T03:58:47;6.70;99.90
25170;DHT22;13129;48.012;10.352;2023-05-16T04:01:13;6.70;99.90
25170;DHT22;13129;48.012;10.352;2023-05-16T04:03:39;6.70;99.90
25170;DHT22;13129;48.012;10.352;2023-05-16T04:06:06;6.80;99.90
25170;DHT22;13129;48.012;10.352;2023-05-16T04:08:32;6.80;99.90
25170;DHT22;13129;48.012;10.352;2023-05-16T04:10:57;6.80;99.90
25170;DHT22;13129;48.012;10.352;2023-05-16T04:13:23;6.90;99.90
25170;DHT22;13129;48.012;10.352;2023-05-16T04:15:49;6.90;99.90
25170;DHT22;13129;48.012;10.352;2023-05-16T04:18:15;7.00;99.90
25170;DHT22;13129;48.012;10.352;2023-05-16T04:20:41;7.10;99.90
25170;DHT22;13129;48.012;10.352;2023-05-16T04:23:07;7.20;99.90
25170;DHT22;13129;48.012;10.352;2023-05-16T04:25:35;7.20;99.90
25170;DHT22;13129;48.012;10.352;2023-05-16T04:28:01;7.30;99.90
25170;DHT22;13129;48.012;10.352;2023-05-16T04:30:26;7.30;99.90
25170;DHT22;13129;48.012;10.352;2023-05-16T04:32:52;7.40;99.90
25170;DHT22;13129;48.012;10.352;2023-05-16T04:35:17;7.50;99.90
25170;DHT22;13129;48.012;10.352;2023-05-16T04:37:43;7.70;99.90
25170;DHT22;13129;48.012;10.352;2023-05-16T04:40:09;7.80;99.90
25170;DHT22;13129;48.012;10.352;2023-05-16T04:42:35;7.90;99.90
25170;DHT22;13129;48.012;10.352;2023-05-16T04:45:01;8.10;99.90
25170;DHT22;13129;48.012;10.352;2023-05-16T04:47:28;8.20;99.90
25170;DHT22;13129;48.012;10.352;2023-05-16T04:49:54;8.20;99.90
25170;DHT22;13129;48.012;10.352;2023-05-16T04:52:20;8.30;99.90
25170;DHT22;13129;48.012;10.352;2023-05-16T04:54:49;8.30;99.90
25170;DHT22;13129;48.012;10.352;2023-05-16T04:57:16;8.40;99.90
25170;DHT22;13129;48.012;10.352;2023-05-16T04:59:42;8.40;99.90
25170;DHT22;13129;48.012;10.352;2023-05-16T05:02:08;8.40;99.90
25170;DHT22;13129;48.012;10.352;2023-05-16T05:04:34;8.60;99.90
25170;DHT22;13129;48.012;10.352;2023-05-16T05:07:00;8.60;99.90
25170;DHT22;13129;48.012;10.352;2023-05-16T05:09:26;8.60;99.90
25170;DHT22;13129;48.012;10.352;2023-05-16T05:11:51;8.60;99.90
25170;DHT22;13129;48.012;10.352;2023-05-16T05:14:17;8.70;99.90
25170;DHT22;13129;48.012;10.352;2023-05-16T05:16:43;8.80;99.90
25170;DHT22;13129;48.012;10.352;2023-05-16T05:19:08;8.80;99.90
25170;DHT22;13129;48.012;10.352;2023-05-16T17:46:05;9.70;99.90
25170;DHT22;13129;48.012;10.352;2023-05-16T17:48:34;9.70;99.90
25170;DHT22;13129;48.012;10.352;2023-05-16T17:51:01;9.70;99.90
25170;DHT22;13129;48.012;10.352;2023-05-16T17:53:27;9.70;99.90
25170;DHT22;13129;48.012;10.352;2023-05-16T17:55:54;9.70;99.90
25170;DHT22;13129;48.012;10.352;2023-05-16T17:58:26;9.70;99.90
25170;DHT22;13129;48.012;10.352;2023-05-16T18:00:53;9.70;99.90
25170;DHT22;13129;48.012;10.352;2023-05-16T18:03:19;9.70;99.90
25170;DHT22;13129;48.012;10.352;2023-05-16T18:05:44;9.70;99.90
25170;DHT22;13129;48.012;10.352;2023-05-16T18:08:10;9.60;99.90
25170;DHT22;13129;48.012;10.352;2023-05-16T18:10:35;9.60;99.90
25170;DHT22;13129;48.012;10.352;2023-05-16T18:13:03;9.60;99.90
25170;DHT22;13129;48.012;10.352;2023-05-16T18:15:28;9.60;99.90
25170;DHT22;13129;48.012;10.352;2023-05-16T18:17:54;9.60;99.90
25170;DHT22;13129;48.012;10.352;2023-05-16T18:20:20;9.50;99.90
25170;DHT22;13129;48.012;10.352;2023-05-16T18:22:46;9.50;99.90
25170;DHT22;13129;48.012;10.352;2023-05-16T18:25:12;9.50;99.90
25170;DHT22;13129;48.012;10.352;2023-05-16T18:27:38;9.50;99.90
25170;DHT22;13129;48.012;10.352;2023-05-16T18:30:04;9.40;99.90
25170;DHT22;13129;48.012;10.352;2023-05-16T18:32:30;9.40;99.90
25170;DHT22;13129;48.012;10.352;2023-05-16T18:34:56;9.40;99.90
25170;DHT22;13129;48.012;10.352;2023-05-16T18:37:22;9.40;99.90
25170;DHT22;13129;48.012;10.352;2023-05-16T18:39:48;9.30;99.90
25170;DHT22;13129;48.012;10.352;2023-05-16T18:42:14;9.30;99.90
25170;DHT22;13129;48.012;10.352;2023-05-16T18:44:42;9.20;99.90
25170;DHT22;13129;48.012;10.352;2023-05-16T18:47:08;9.20;99.90
25170;DHT22;13129;48.012;10.352;2023-05-16T18:49:33;9.10;99.90
25170;DHT22;13129;48.012;10.352;2023-05-16T18:52:05;9.10;99.90
25170;DHT22;13129;48.012;10.352;2023-05-16T18:54:31;9.00;99.90
25170;DHT22;13129;48.012;10.352;2023-05-16T18:56:57;8.90;99.90
25170;DHT22;13129;48.012;10.352;2023-05-16T18:59:23;8.90;99.90
25170;DHT22;13129;48.012;10.352;2023-05-16T19:01:48;8.90;99.90
25170;DHT22;13129;48.012;10.352;2023-05-16T19:04:14;8.80;99.90
25170;DHT22;13129;48.012;10.352;2023-05-16T19:06:40;8.80;99.90
25170;DHT22;13129;48.012;10.352;2023-05-16T19:09:05;8.80;99.90
25170;DHT22;13129;48.012;10.352;2023-05-16T19:11:31;8.80;99.90
25170;DHT22;13129;48.012;10.352;2023-05-16T19:13:57;8.80;99.90
25170;DHT22;13129;48.012;10.352;2023-05-16T19:16:23;8.70;99.90
25170;DHT22;13129;48.012;10.352;2023-05-16T19:18:48;8.70;99.90
25170;DHT22;13129;48.012;10.352;2023-05-16T19:21:14;8.60;99.90
25170;DHT22;13129;48.012;10.352;2023-05-16T19:23:40;8.60;99.90
25170;DHT22;13129;48.012;10.352;2023-05-16T19:26:06;8.50;99.90
25170;DHT22;13129;48.012;10.352;2023-05-16T19:28:31;8.50;99.90
25170;DHT22;13129;48.012;10.352;2023-05-16T19:30:58;8.50;99.90
25170;DHT22;13129;48.012;10.352;2023-05-16T19:33:23;8.50;99.90
25170;DHT22;13129;48.012;10.352;2023-05-16T19:35:49;8.50;99.90
25170;DHT22;13129;48.012;10.352;2023-05-16T19:38:17;8.50;99.90
25170;DHT22;13129;48.012;10.352;2023-05-16T19:40:44;8.40;99.90
25170;DHT22;13129;48.012;10.352;2023-05-16T19:43:10;8.40;99.90
25170;DHT22;13129;48.012;10.352;2023-05-16T19:45:35;8.40;99.90
25170;DHT22;13129;48.012;10.352;2023-05-16T19:48:02;8.40;99.90
25170;DHT22;13129;48.012;10.352;2023-05-16T19:50:28;8.40;99.90
25170;DHT22;13129;48.012;10.352;2023-05-16T19:52:53;8.40;99.90
25170;DHT22;13129;48.012;10.352;2023-05-16T19:55:19;8.40;99.90
25170;DHT22;13129;48.012;10.352;2023-05-16T19:57:45;8.40;99.90
25170;DHT22;13129;48.012;10.352;2023-05-16T20:00:11;8.30;99.90
25170;DHT22;13129;48.012;10.352;2023-05-16T20:02:37;8.30;99.90
25170;DHT22;13129;48.012;10.352;2023-05-16T20:05:03;8.30;99.90
25170;DHT22;13129;48.012;10.352;2023-05-16T20:07:29;8.30;99.90
25170;DHT22;13129;48.012;10.352;2023-05-16T20:09:54;8.30;99.90
25170;DHT22;13129;48.012;10.352;2023-05-16T20:12:20;8.30;99.90
25170;DHT22;13129;48.012;10.352;2023-05-16T20:14:46;8.30;99.90
25170;DHT22;13129;48.012;10.352;2023-05-16T20:17:11;8.30;99.90
25170;DHT22;13129;48.012;10.352;2023-05-16T20:19:37;8.30;99.90
25170;DHT22;13129;48.012;10.352;2023-05-16T20:22:08;8.30;99.90
25170;DHT22;13129;48.012;10.352;2023-05-16T20:24:34;8.30;99.90
25170;DHT22;13129;48.012;10.352;2023-05-16T20:27:00;8.30;99.90
25170;DHT22;13129;48.012;10.352;2023-05-16T20:29:26;8.30;99.90
25170;DHT22;13129;48.012;10.352;2023-05-16T20:31:52;8.30;99.90
25170;DHT22;13129;48.012;10.352;2023-05-16T20:34:17;8.30;99.90
25170;DHT22;13129;48.012;10.352;2023-05-16T20:36:43;8.20;99.90
25170;DHT22;13129;48.012;10.352;2023-05-16T20:39:09;8.20;99.90
25170;DHT22;13129;48.012;10.352;2023-05-16T20:41:34;8.20;99.90
25170;DHT22;13129;48.012;10.352;2023-05-16T20:44:00;8.20;99.90
25170;DHT22;13129;48.012;10.352;2023-05-16T20:46:26;8.20;99.90
25170;DHT22;13129;48.012;10.352;2023-05-16T20:48:51;8.10;99.90
25170;DHT22;13129;48.012;10.352;2023-05-16T20:51:17;8.20;99.90
25170;DHT22;13129;48.012;10.352;2023-05-16T20:53:43;8.10;99.90
25170;DHT22;13129;48.012;10.352;2023-05-16T20:56:08;8.10;99.90
25170;DHT22;13129;48.012;10.352;2023-05-16T20:58:34;8.10;99.90
25170;DHT22;13129;48.012;10.352;2023-05-16T21:00:59;8.10;99.90
25170;DHT22;13129;48.012;10.352;2023-05-16T21:03:26;8.10;99.90
25170;DHT22;13129;48.012;10.352;2023-05-16T21:05:52;8.10;99.90
25170;DHT22;13129;48.012;10.352;2023-05-16T21:08:17;8.10;99.90
25170;DHT22;13129;48.012;10.352;2023-05-16T21:10:43;8.10;99.90
25170;DHT22;13129;48.012;10.352;2023-05-16T21:13:09;8.10;99.90
25170;DHT22;13129;48.012;10.352;2023-05-16T21:15:34;8.10;99.90
25170;DHT22;13129;48.012;10.352;2023-05-16T21:18:02;8.10;99.90
25170;DHT22;13129;48.012;10.352;2023-05-16T21:20:28;8.10;99.90
25170;DHT22;13129;48.012;10.352;2023-05-16T21:22:54;8.10;99.90
25170;DHT22;13129;48.012;10.352;2023-05-16T21:25:21;8.00;99.90
25170;DHT22;13129;48.012;10.352;2023-05-16T21:27:47;8.00;99.90
25170;DHT22;13129;48.012;10.352;2023-05-16T21:30:13;8.00;99.90
25170;DHT22;13129;48.012;10.352;2023-05-16T21:32:38;8.00;99.90
25170;DHT22;13129;48.012;10.352;2023-05-16T21:35:04;8.00;99.90
25170;DHT22;13129;48.012;10.352;2023-05-16T21:37:31;8.10;99.90
25170;DHT22;13129;48.012;10.352;2023-05-16T21:39:57;8.10;99.90
25170;DHT22;13129;48.012;10.352;2023-05-16T21:42:23;8.10;99.90
25170;DHT22;13129;48.012;10.352;2023-05-16T21:44:48;8.00;99.90
25170;DHT22;13129;48.012;10.352;2023-05-16T21:47:14;8.00;99.90
25170;DHT22;13129;48.012;10.352;2023-05-16T21:49:40;8.00;99.90
25170;DHT22;13129;48.012;10.352;2023-05-16T21:52:05;8.00;99.90
25170;DHT22;13129;48.012;10.352;2023-05-16T21:54:31;8.00;99.90
25170;DHT22;13129;48.012;10.352;2023-05-16T21:56:57;8.00;99.90
25170;DHT22;13129;48.012;10.352;2023-05-16T21:59:22;8.00;99.90
25170;DHT22;13129;48.012;10.352;2023-05-16T22:01:48;8.00;99.90
25170;DHT22;13129;48.012;10.352;2023-05-16T22:04:13;7.90;99.90
25170;DHT22;13129;48.012;10.352;2023-05-16T22:06:39;8.00;99.90
25170;DHT22;13129;48.012;10.352;2023-05-16T22:09:05;7.90;99.90
25170;DHT22;13129;48.012;10.352;2023-05-16T22:11:31;7.90;99.90
25170;DHT22;13129;48.012;10.352;2023-05-16T22:13:56;7.90;99.90
25170;DHT22;13129;48.012;10.352;2023-05-16T22:16:22;7.90;99.90
25170;DHT22;13129;48.012;10.352;2023-05-16T22:18:48;7.90;99.90
25170;DHT22;13129;48.012;10.352;2023-05-16T22:21:13;7.90;99.90
25170;DHT22;13129;48.012;10.352;2023-05-16T22:23:41;7.90;99.90
25170;DHT22;13129;48.012;10.352;2023-05-16T22:26:06;7.90;99.90
25170;DHT22;13129;48.012;10.352;2023-05-16T22:28:32;7.90;99.90
25170;DHT22;13129;48.012;10.352;2023-05-16T22:30:57;7.80;99.90
25170;DHT22;13129;48.012;10.352;2023-05-16T22:33:23;7.80;99.90
25170;DHT22;13129;48.012;10.352;2023-05-16T22:35:49;7.80;99.90
25170;DHT22;13129;48.012;10.352;2023-05-16T22:38:15;7.80;99.90
25170;DHT22;13129;48.012;10.352;2023-05-16T22:40:41;7.80;99.90
25170;DHT22;13129;48.012;10.352;2023-05-16T22:43:06;7.70;99.90
25170;DHT22;13129;48.012;10.352;2023-05-16T22:45:32;7.80;99.90
25170;DHT22;13129;48.012;10.352;2023-05-16T22:47:58;7.70;99.90
25170;DHT22;13129;48.012;10.352;2023-05-16T22:50:23;7.80;99.90
25170;DHT22;13129;48.012;10.352;2023-05-16T22:52:49;7.70;99.90
25170;DHT22;13129;48.012;10.352;2023-05-16T22:55:15;7.70;99.90
25170;DHT22;13129;48.012;10.352;2023-05-16T22:57:40;7.70;99.90
